createdAt,value
2019-06-07T00:00:40.120Z,2.80
2019-06-07T00:03:10.583Z,2.33
2019-06-07T00:05:39.325Z,2.80
2019-06-07T00:08:17.148Z,2.80
2019-06-07T00:10:40.800Z,3.53
2019-06-07T00:13:12.922Z,3.30
2019-06-07T00:15:42.211Z,3.33
2019-06-07T00:18:15.035Z,3.40
2019-06-07T00:20:43.547Z,4.00
2019-06-07T00:23:17.232Z,4.17
2019-06-07T00:25:44.988Z,3.60
2019-06-07T00:28:17.290Z,3.80
2019-06-07T00:30:51.904Z,4.43
2019-06-07T00:33:23.367Z,3.67
2019-06-07T00:35:49.659Z,4.20
2019-06-07T00:38:21.760Z,3.63
2019-06-07T00:40:50.269Z,3.50
2019-06-07T00:43:25.817Z,4.20
2019-06-07T00:45:51.169Z,4.43
2019-06-07T00:48:30.823Z,4.17
2019-06-07T00:50:54.827Z,4.13
2019-06-07T00:53:31.647Z,4.57
2019-06-07T00:55:55.471Z,4.87
2019-06-07T00:58:27.914Z,4.90
2019-06-07T01:00:57.010Z,5.17
2019-06-07T01:03:26.913Z,5.07
2019-06-07T01:05:56.425Z,6.80
2019-06-07T01:08:29.981Z,5.90
2019-06-07T01:11:00.133Z,5.73
2019-06-07T01:13:30.080Z,5.37
2019-06-07T01:15:59.822Z,6.60
2019-06-07T01:18:41.325Z,5.90
2019-06-07T01:21:01.072Z,6.47
2019-06-07T01:26:01.972Z,7.60
2019-06-07T01:28:33.030Z,6.60
2019-06-07T01:31:03.135Z,7.73
2019-06-07T01:33:50.192Z,8.60
2019-06-07T01:36:04.116Z,8.93
2019-06-07T01:38:35.943Z,7.87
2019-06-07T01:41:05.336Z,7.90
2019-06-07T01:43:35.065Z,8.20
2019-06-07T01:46:04.885Z,8.37
2019-06-07T01:48:48.897Z,8.67
2019-06-07T01:51:05.817Z,9.03
2019-06-07T01:53:37.312Z,9.10
2019-06-07T01:56:06.798Z,9.73
2019-06-07T01:58:36.310Z,10.23
2019-06-07T02:01:06.553Z,9.20
2019-06-07T02:03:36.493Z,10.03
2019-06-07T02:06:06.503Z,10.67
2019-06-07T02:08:39.093Z,10.97
2019-06-07T02:11:10.173Z,9.97
2019-06-07T02:13:39.886Z,11.10
2019-06-07T02:16:09.947Z,12.88
2019-06-07T02:19:00.641Z,11.37
2019-06-07T02:21:11.313Z,11.53
2019-06-07T02:23:41.115Z,12.60
2019-06-07T02:26:10.661Z,11.60
2019-06-07T02:28:45.627Z,12.07
2019-06-07T02:31:11.588Z,11.30
2019-06-07T02:33:41.772Z,11.93
2019-06-07T02:36:13.120Z,12.23
2019-06-07T02:38:42.882Z,13.10
2019-06-07T02:41:12.484Z,14.47
2019-06-07T02:43:41.750Z,13.23
2019-06-07T02:46:30.602Z,13.87
2019-06-07T02:48:55.713Z,14.43
2019-06-07T02:51:32.304Z,14.50
2019-06-07T02:53:57.041Z,13.43
2019-06-07T02:56:39.073Z,14.53
2019-06-07T02:58:58.186Z,14.13
2019-06-07T03:01:36.647Z,14.07
2019-06-07T03:04:03.375Z,16.30
2019-06-07T03:06:39.301Z,17.90
2019-06-07T03:09:07.930Z,16.13
2019-06-07T03:11:43.259Z,17.27
2019-06-07T03:14:13.786Z,15.27
2019-06-07T03:16:52.817Z,17.40
2019-06-07T03:19:31.340Z,15.03
2019-06-07T03:22:03.906Z,17.17
2019-06-07T03:24:39.150Z,15.97
2019-06-07T03:27:34.036Z,16.27
2019-06-07T03:29:41.291Z,17.80
2019-06-07T03:32:11.031Z,18.13
2019-06-07T03:34:43.534Z,16.83
2019-06-07T03:37:12.099Z,19.10
2019-06-07T03:39:41.576Z,18.97
2019-06-07T03:42:11.411Z,17.00
2019-06-07T03:44:41.783Z,17.93
2019-06-07T03:47:11.378Z,17.73
2019-06-07T03:49:42.583Z,18.60
2019-06-07T03:52:12.394Z,18.60
2019-06-07T03:54:42.214Z,17.90
2019-06-07T03:57:12.363Z,18.77
2019-06-07T03:59:42.061Z,18.67
2019-06-07T04:02:12.237Z,16.93
2019-06-07T04:04:42.073Z,18.10
2019-06-07T04:07:12.459Z,17.53
2019-06-07T04:09:43.010Z,17.43
2019-06-07T04:12:13.217Z,17.10
2019-06-07T04:14:43.115Z,19.47
2019-06-07T04:17:12.552Z,18.90
2019-06-07T04:19:43.548Z,19.87
2019-06-07T04:22:15.371Z,19.73
2019-06-07T04:24:44.799Z,17.57
2019-06-07T04:27:19.114Z,17.80
2019-06-07T04:30:06.388Z,18.17
2019-06-07T04:32:20.294Z,18.47
2019-06-07T04:34:50.587Z,17.07
2019-06-07T04:37:21.132Z,17.57
2019-06-07T04:39:51.848Z,17.60
2019-06-07T04:42:21.465Z,16.40
2019-06-07T04:44:51.551Z,17.53
2019-06-07T04:47:22.309Z,16.03
2019-06-07T04:49:53.704Z,15.80
2019-06-07T04:52:23.874Z,16.40
2019-06-07T04:54:54.006Z,16.00
2019-06-07T04:57:23.582Z,17.63
2019-06-07T05:00:11.921Z,16.50
2019-06-07T05:02:25.172Z,15.83
2019-06-07T05:04:54.867Z,16.03
2019-06-07T05:07:24.769Z,16.90
2019-06-07T05:09:54.978Z,15.83
2019-06-07T05:12:24.530Z,15.70
2019-06-07T05:14:54.159Z,16.67
2019-06-07T05:17:23.667Z,15.17
2019-06-07T05:19:53.735Z,14.97
2019-06-07T05:22:23.320Z,16.37
2019-06-07T05:24:52.820Z,14.23
2019-06-07T05:27:24.752Z,14.73
2019-06-07T05:30:09.619Z,14.57
2019-06-07T05:32:26.373Z,16.00
2019-06-07T05:34:56.001Z,15.80
2019-06-07T05:37:45.828Z,16.50
2019-06-07T05:40:19.509Z,15.33
2019-06-07T05:42:49.579Z,14.37
2019-06-07T05:45:27.886Z,15.20
2019-06-07T05:48:00.129Z,16.90
2019-06-07T05:50:41.473Z,16.07
2019-06-07T05:53:04.313Z,16.27
2019-06-07T05:55:35.273Z,15.77
2019-06-07T05:58:05.109Z,16.43
2019-06-07T06:00:36.480Z,15.17
2019-06-07T06:03:07.948Z,16.50
2019-06-07T06:05:45.752Z,14.83
2019-06-07T06:08:12.331Z,14.87
2019-06-07T06:10:46.124Z,15.20
2019-06-07T06:13:13.083Z,14.17
2019-06-07T06:16:00.457Z,13.63
2019-06-07T06:18:18.085Z,15.40
2019-06-07T06:21:18.780Z,13.10
2019-06-07T06:23:22.172Z,13.37
2019-06-07T06:25:56.914Z,13.30
2019-06-07T06:28:23.819Z,12.67
2019-06-07T06:31:00.948Z,13.33
2019-06-07T06:33:34.443Z,12.87
2019-06-07T06:36:01.898Z,12.90
2019-06-07T06:38:31.776Z,11.77
2019-06-07T06:41:15.155Z,11.90
2019-06-07T06:43:34.718Z,11.63
2019-06-07T06:46:04.533Z,10.83
2019-06-07T06:48:34.624Z,11.20
2019-06-07T06:51:04.316Z,11.37
2019-06-07T06:53:36.778Z,10.63
2019-06-07T06:56:06.715Z,11.27
2019-06-07T06:59:21.438Z,9.47
2019-06-07T07:01:11.889Z,9.40
2019-06-07T07:04:00.164Z,9.23
2019-06-07T07:06:25.745Z,9.17
2019-06-07T07:08:50.748Z,8.53
2019-06-07T07:11:23.090Z,9.00
2019-06-07T07:13:55.837Z,8.40
2019-06-07T07:16:25.329Z,8.67
2019-06-07T07:19:01.164Z,9.00
2019-06-07T07:21:34.657Z,8.43
2019-06-07T07:24:21.136Z,8.80
2019-06-07T07:26:37.863Z,9.27
2019-06-07T07:29:08.109Z,8.03
2019-06-07T07:31:45.605Z,7.97
2019-06-07T07:34:33.418Z,8.20
2019-06-07T07:37:01.711Z,7.77
2019-06-07T07:40:55.439Z,7.77
2019-06-07T07:42:47.550Z,7.10
2019-06-07T07:45:23.056Z,7.77
2019-06-07T07:48:13.297Z,7.57
2019-06-07T07:50:32.261Z,7.20
2019-06-07T07:53:16.026Z,7.63
2019-06-07T07:55:59.717Z,8.13
2019-06-07T07:58:25.635Z,7.80
2019-06-07T08:01:09.006Z,7.47
2019-06-07T08:03:26.323Z,7.77
2019-06-07T08:06:18.143Z,7.03
2019-06-07T08:08:48.760Z,7.93
2019-06-07T08:11:18.473Z,7.23
2019-06-07T08:13:50.493Z,7.50
2019-06-07T08:16:27.151Z,7.77
2019-06-07T08:19:03.836Z,7.93
2019-06-07T08:21:56.429Z,7.17
2019-06-07T08:24:26.281Z,6.90
2019-06-07T08:27:17.869Z,6.63
2019-06-07T08:29:45.641Z,7.10
2019-06-07T08:32:23.032Z,6.87
2019-06-07T08:34:56.797Z,6.33
2019-06-07T08:38:14.017Z,6.77
2019-06-07T08:48:46.824Z,5.80
2019-06-07T09:01:26.691Z,6.10
2019-06-07T09:04:09.850Z,6.07
2019-06-07T09:12:20.378Z,5.67
2019-06-07T09:15:07.229Z,6.23
2019-06-07T09:18:29.545Z,5.50
2019-06-07T09:20:35.608Z,6.30
2019-06-07T09:22:48.764Z,6.07
2019-06-07T09:25:24.343Z,4.97
2019-06-07T09:28:10.162Z,5.30
2019-06-07T09:30:47.227Z,4.97
2019-06-07T09:33:17.709Z,5.33
2019-06-07T09:35:49.134Z,5.50
2019-06-07T09:38:30.199Z,5.27
2019-06-07T09:41:07.421Z,5.30
2019-06-07T09:44:10.815Z,5.47
2019-06-07T09:46:45.824Z,5.37
2019-06-07T09:49:32.268Z,6.53
2019-06-07T09:52:02.676Z,6.20
2019-06-07T09:55:12.467Z,6.17
2019-06-07T09:58:06.810Z,6.30
2019-06-07T10:04:09.073Z,6.23
2019-06-07T10:12:28.830Z,6.63
2019-06-07T10:15:05.419Z,6.10
2019-06-07T10:23:46.508Z,6.00
2019-06-07T10:28:59.748Z,6.67
2019-06-07T10:32:20.105Z,6.80
2019-06-07T10:34:51.744Z,6.10
2019-06-07T10:37:28.247Z,6.50
2019-06-07T10:40:05.345Z,5.87
2019-06-07T10:43:04.945Z,6.87
2019-06-07T10:45:41.975Z,6.73
2019-06-07T10:48:20.125Z,6.93
2019-06-07T10:50:53.545Z,6.73
2019-06-07T10:53:33.795Z,5.83
2019-06-07T10:56:15.146Z,6.57
2019-06-07T10:58:47.004Z,6.70
2019-06-07T11:02:01.413Z,6.50
2019-06-07T11:07:50.322Z,5.70
2019-06-07T11:14:15.470Z,7.67
2019-06-07T11:16:49.317Z,6.50
2019-06-07T11:20:12.417Z,6.30
2019-06-07T11:23:03.166Z,6.67
2019-06-07T11:25:46.291Z,5.83
2019-06-07T11:28:41.915Z,6.17
2019-06-07T11:31:26.354Z,5.47
2019-06-07T11:34:10.491Z,5.43
2019-06-07T11:36:51.068Z,5.20
2019-06-07T11:39:31.794Z,5.60
2019-06-07T11:42:07.788Z,6.60
2019-06-07T11:44:56.165Z,5.60
2019-06-07T11:47:30.975Z,6.23
2019-06-07T11:50:21.967Z,6.33
2019-06-07T11:52:53.672Z,6.60
2019-06-07T11:55:27.184Z,6.80
2019-06-07T11:57:57.922Z,6.10
2019-06-07T12:00:28.550Z,6.00
2019-06-07T12:03:18.086Z,6.60
2019-06-07T12:06:10.045Z,6.37
2019-06-07T12:08:43.513Z,6.20
2019-06-07T12:11:35.242Z,6.30
2019-06-07T12:17:04.175Z,5.70
2019-06-07T12:20:14.803Z,6.53
2019-06-07T12:23:01.548Z,6.20
2019-06-07T12:32:11.138Z,6.17
2019-06-07T12:35:03.172Z,6.17
2019-06-07T12:37:53.448Z,6.47
2019-06-07T12:43:51.527Z,6.53
2019-06-07T12:46:26.759Z,5.90
2019-06-07T12:49:43.948Z,6.40
2019-06-07T12:56:06.450Z,5.13
2019-06-07T13:02:26.100Z,5.47
2019-06-07T13:05:23.989Z,4.63
2019-06-07T13:22:32.506Z,5.20
2019-06-07T13:26:03.751Z,4.50
2019-06-07T13:29:07.046Z,5.13
2019-06-07T14:24:58.374Z,3.40
2019-06-07T14:33:04.433Z,3.63
2019-06-07T17:18:02.758Z,1.13
2019-06-07T17:51:29.870Z,0.90
2019-06-07T18:00:27.775Z,0.90
2019-06-07T19:32:38.457Z,1.00
2019-06-07T19:54:35.290Z,1.10
2019-06-07T20:15:17.554Z,1.30
2019-06-07T20:50:53.709Z,1.00
2019-06-07T20:56:40.311Z,1.00
2019-06-07T21:38:44.858Z,1.03
2019-06-07T21:50:28.638Z,0.93
2019-06-07T22:04:37.549Z,1.17
2019-06-07T22:38:58.838Z,1.00
2019-06-07T23:31:23.295Z,1.10
